Saturday, May 26, 2018, 12:13 PM GMT
Back to Local

CYTR, Trenton, Ont.

Location: , , Canada Lat: 44.117
Local Time: 12:13 PM GMT (12:13 GMT) Lon: -77.533
Time Zone: GMT Elev: 278 ft

Show me the last for .
Show Coded

Time T Td Feel RH Dir Speed Gust Alt SLP Vis Weather Sky Remarks
2018-05-26 11:00 66 52 - 59 220° 7 - 29.74 29.74 15 BKN080 OVC250 None
2018-05-26 10:00 64 52 - 63 - Calm - 29.74 29.74 15 SCT077 OVC250 None
2018-05-26 09:00 66 48 - 52 210° 10 - 29.70 29.70 15 FEW120 OVC250 None
2018-05-26 08:00 66 50 - 55 210° 8 - 29.70 29.70 15 BKN120 OVC250 None
2018-05-26 07:00 68 52 - 56 200° 8 - 29.71 29.71 15 SCT120 None
2018-05-26 06:00 70 48 - 46 210° 3 - 29.72 29.72 15 SCT230 None
2018-05-26 05:00 72 48 76 43 230° 8 - 29.72 29.72 15 BKN100 None
2018-05-26 04:00 72 48 76 43 240° 10 - 29.73 29.72 15 FEW070 None
2018-05-26 03:00 73 48 76 40 230° 8 - 29.74 29.74 15 FEW070 None
2018-05-26 02:00 73 50 76 43 240° 9 - 29.74 29.74 15 FEW070 None
2018-05-26 01:00 75 50 77 41 240° 12 18 29.74 29.74 15 FEW030 SCT072 None
2018-05-26 00:00 77 52 78 41 240° 14 20 29.74 29.74 15 FEW072 None
2018-05-25 23:00 77 54 78 44 220° 13 20 29.74 29.74 15 FEW095 None
2018-05-25 22:00 77 54 78 44 230° 14 20 29.76 29.76 15 FEW095 SCT250 None
2018-05-25 21:00 79 52 - 39 240° 15 23 29.77 29.77 15 FEW035 BKN095 BKN250 None
2018-05-25 20:00 81 54 - 39 230° 18 29 29.78 29.78 15 FEW095 BKN250 None
2018-05-25 19:00 77 54 78 44 230° 16 22 29.80 29.80 15 FEW110 BKN250 None
2018-05-25 18:00 79 54 79 41 220° 18 - 29.82 29.83 15 FEW110 FEW250 None
2018-05-25 17:00 73 54 77 49 210° 14 20 29.85 29.85 15 FEW035 FEW110 SCT250 None
2018-05-25 16:00 70 54 - 56 210° 13 - 29.87 29.87 15 FEW035 SCT110 None
2018-05-25 15:00 68 52 - 56 210° 12 - 29.89 29.89 15 SCT035 BKN110 None
2018-05-25 14:00 68 52 - 56 210° 8 - 29.91 29.91 15 SCT055 BKN110 None
2018-05-25 13:00 66 50 - 55 220° 7 - 29.93 29.93 15 SCT140 BKN230 None

Support USWX by starting your Amazon purchase here.